LiveATC.Net - Listen to live air traffic control over the Internet!


ICAO: KHND  IATA: HSH   Airport: Henderson Executive Airport
City: Las Vegas   State/Province: Nevada
Country: United States   Continent: North America
KHND METAR Weather: KHND 030556Z AUTO 16004KT 10SM CLR 09/M14 A2993 RMK AO2 SLP151 T00891139 10189 20089 51005
KHND Flight Activity (FlightAware)
KHND Airport Info   (iFlightPlanner)
KHND VFR Sectional Chart   (iFlightPlanner) 
KHND IFR Low Chart   (iFlightPlanner) 

KHND Ground/Tower
Feed Status: UP   Listeners: 0
Listen in your browser - HTML5 player (in browser, HTML5)
Click here to listen with your own player (launches your MP3 player)
Archive Access: KHND Ground/Tower
FacilityFrequency
Henderson Ground127.800
Henderson Tower125.100

NOTICE

Unauthorized use prohibited. See LiveATC.net Terms of Service


Airport/ARTCC Code
Frequency Search
(e.g., 124.400, 128.75)
Site-wide search
 


Browse Feeds
Top 50 Feeds
Coverage Map
Bad Weather Areas

LiveATC FAQ
Offer LiveATC feed
Contact LiveATC.net
Press Inquiries

LiveATC on iPhone
LiveATC on Android

Windows Phone
Windows 8/10

LiveATC Mobile
(Mobile browser)

ATC Audio Archives
Interesting Recordings

LiveATC Forums


Home Page
About LiveATC.net
Make a Donation
Terms of Use
Privacy Policy

Canadian Air Freqs

AIRMETs/SIGMETs

FAA Airport Status
Nat'l Airspace Status
Arrival Demand Charts


Server Software By:
Icecast.org
Liquidsoap